sensor_id;sensor_type;location;lat;lon;timestamp;temperature;humidity
26212;DHT22;13951;49.516;6.094;2023-12-28T08:02:20;8.50;99.90
26212;DHT22;13951;49.516;6.094;2023-12-28T08:06:23;8.50;99.90
26212;DHT22;13951;49.516;6.094;2023-12-28T08:17:52;8.50;99.90
26212;DHT22;13951;49.516;6.094;2023-12-28T08:22:13;8.60;99.90
26212;DHT22;13951;49.516;6.094;2023-12-28T08:32:57;8.60;99.90
26212;DHT22;13951;49.516;6.094;2023-12-28T08:48:30;8.80;99.90
26212;DHT22;13951;49.516;6.094;2023-12-28T10:38:20;9.50;99.90
26212;DHT22;13951;49.516;6.094;2023-12-28T10:40:54;9.50;99.90
26212;DHT22;13951;49.516;6.094;2023-12-28T10:43:28;9.60;99.90
26212;DHT22;13951;49.516;6.094;2023-12-28T10:46:02;9.60;99.90
26212;DHT22;13951;49.516;6.094;2023-12-28T10:48:39;9.60;99.90
26212;DHT22;13951;49.516;6.094;2023-12-28T10:51:15;9.60;99.90
26212;DHT22;13951;49.516;6.094;2023-12-28T10:54:06;9.60;99.90
26212;DHT22;13951;49.516;6.094;2023-12-28T10:56:45;9.60;99.90
26212;DHT22;13951;49.516;6.094;2023-12-28T11:37:33;9.30;99.90
26212;DHT22;13951;49.516;6.094;2023-12-28T11:40:12;9.40;99.90
26212;DHT22;13951;49.516;6.094;2023-12-28T11:42:52;9.40;99.90
26212;DHT22;13951;49.516;6.094;2023-12-28T11:45:27;9.50;99.90
26212;DHT22;13951;49.516;6.094;2023-12-28T11:48:03;9.50;99.90
26212;DHT22;13951;49.516;6.094;2023-12-28T11:50:37;9.50;99.90
26212;DHT22;13951;49.516;6.094;2023-12-28T11:53:12;9.50;99.90
26212;DHT22;13951;49.516;6.094;2023-12-28T11:55:46;9.60;99.90
26212;DHT22;13951;49.516;6.094;2023-12-28T11:58:20;9.50;99.90
26212;DHT22;13951;49.516;6.094;2023-12-28T12:00:54;9.50;99.90
26212;DHT22;13951;49.516;6.094;2023-12-28T12:03:28;9.50;99.90
26212;DHT22;13951;49.516;6.094;2023-12-28T12:06:03;9.60;99.90
26212;DHT22;13951;49.516;6.094;2023-12-28T12:08:37;9.50;99.90
26212;DHT22;13951;49.516;6.094;2023-12-28T12:11:10;9.60;99.90
26212;DHT22;13951;49.516;6.094;2023-12-28T12:13:53;9.50;99.90
26212;DHT22;13951;49.516;6.094;2023-12-28T12:16:27;9.50;99.90
26212;DHT22;13951;49.516;6.094;2023-12-28T12:19:00;9.50;99.90
26212;DHT22;13951;49.516;6.094;2023-12-28T12:21:34;9.50;99.90
26212;DHT22;13951;49.516;6.094;2023-12-28T12:24:09;9.50;99.90
26212;DHT22;13951;49.516;6.094;2023-12-28T12:26:43;9.60;99.90
26212;DHT22;13951;49.516;6.094;2023-12-28T12:29:17;9.60;99.90
26212;DHT22;13951;49.516;6.094;2023-12-28T12:31:58;9.60;99.90
26212;DHT22;13951;49.516;6.094;2023-12-28T12:34:32;9.60;99.90
26212;DHT22;13951;49.516;6.094;2023-12-28T12:37:07;9.60;99.90
26212;DHT22;13951;49.516;6.094;2023-12-28T12:39:40;9.70;99.90
26212;DHT22;13951;49.516;6.094;2023-12-28T12:42:14;9.70;99.90
26212;DHT22;13951;49.516;6.094;2023-12-28T12:44:48;9.70;99.90
26212;DHT22;13951;49.516;6.094;2023-12-28T12:47:23;9.70;99.90
26212;DHT22;13951;49.516;6.094;2023-12-28T12:49:57;9.70;99.90
26212;DHT22;13951;49.516;6.094;2023-12-28T12:52:31;9.70;99.90
26212;DHT22;13951;49.516;6.094;2023-12-28T12:57:51;9.70;99.90
26212;DHT22;13951;49.516;6.094;2023-12-28T13:01:44;9.70;99.90
26212;DHT22;13951;49.516;6.094;2023-12-28T13:05:04;9.70;99.90
26212;DHT22;13951;49.516;6.094;2023-12-28T13:07:38;9.70;99.90
26212;DHT22;13951;49.516;6.094;2023-12-28T13:11:36;9.70;99.90
26212;DHT22;13951;49.516;6.094;2023-12-28T13:17:40;9.70;99.90
26212;DHT22;13951;49.516;6.094;2023-12-28T13:20:14;9.70;99.90
26212;DHT22;13951;49.516;6.094;2023-12-28T13:22:47;9.70;99.90
26212;DHT22;13951;49.516;6.094;2023-12-28T13:25:21;9.70;99.90
26212;DHT22;13951;49.516;6.094;2023-12-28T13:27:54;9.70;99.90
26212;DHT22;13951;49.516;6.094;2023-12-28T13:30:28;9.70;99.90
26212;DHT22;13951;49.516;6.094;2023-12-28T13:33:04;9.70;99.90
26212;DHT22;13951;49.516;6.094;2023-12-28T13:35:38;9.70;99.90
26212;DHT22;13951;49.516;6.094;2023-12-28T13:38:12;9.60;99.90
26212;DHT22;13951;49.516;6.094;2023-12-28T13:40:45;9.60;99.90
26212;DHT22;13951;49.516;6.094;2023-12-28T13:43:20;9.60;99.90
26212;DHT22;13951;49.516;6.094;2023-12-28T13:45:53;9.60;99.90
26212;DHT22;13951;49.516;6.094;2023-12-28T13:48:27;9.60;99.90
26212;DHT22;13951;49.516;6.094;2023-12-28T13:51:00;9.50;99.90
26212;DHT22;13951;49.516;6.094;2023-12-28T13:53:35;9.50;99.90
26212;DHT22;13951;49.516;6.094;2023-12-28T13:56:14;9.50;99.90
26212;DHT22;13951;49.516;6.094;2023-12-28T13:58:47;9.40;99.90
26212;DHT22;13951;49.516;6.094;2023-12-28T14:01:21;9.40;99.90
26212;DHT22;13951;49.516;6.094;2023-12-28T14:03:55;9.40;99.90
26212;DHT22;13951;49.516;6.094;2023-12-28T14:06:30;9.40;99.90
26212;DHT22;13951;49.516;6.094;2023-12-28T14:09:04;9.40;99.90
26212;DHT22;13951;49.516;6.094;2023-12-28T14:11:37;9.40;99.90
26212;DHT22;13951;49.516;6.094;2023-12-28T14:14:10;9.40;99.90
26212;DHT22;13951;49.516;6.094;2023-12-28T14:16:44;9.40;99.90
26212;DHT22;13951;49.516;6.094;2023-12-28T14:19:19;9.40;99.90
26212;DHT22;13951;49.516;6.094;2023-12-28T14:22:35;9.40;99.90
26212;DHT22;13951;49.516;6.094;2023-12-28T14:25:09;9.40;99.90
26212;DHT22;13951;49.516;6.094;2023-12-28T14:27:44;9.40;99.90
26212;DHT22;13951;49.516;6.094;2023-12-28T14:30:18;9.40;99.90
26212;DHT22;13951;49.516;6.094;2023-12-28T14:32:52;9.40;99.90
26212;DHT22;13951;49.516;6.094;2023-12-28T14:35:25;9.40;99.90
26212;DHT22;13951;49.516;6.094;2023-12-28T14:37:58;9.40;99.90
26212;DHT22;13951;49.516;6.094;2023-12-28T14:40:32;9.40;99.90
26212;DHT22;13951;49.516;6.094;2023-12-28T14:43:05;9.40;99.90
26212;DHT22;13951;49.516;6.094;2023-12-28T14:45:38;9.40;99.90
26212;DHT22;13951;49.516;6.094;2023-12-28T14:48:12;9.40;99.90
26212;DHT22;13951;49.516;6.094;2023-12-28T14:50:45;9.40;99.90
26212;DHT22;13951;49.516;6.094;2023-12-28T14:53:18;9.40;99.90
26212;DHT22;13951;49.516;6.094;2023-12-28T14:55:52;9.40;99.90
26212;DHT22;13951;49.516;6.094;2023-12-28T14:58:25;9.40;99.90
26212;DHT22;13951;49.516;6.094;2023-12-28T15:00:59;9.40;99.90
26212;DHT22;13951;49.516;6.094;2023-12-28T15:03:32;9.40;99.90
26212;DHT22;13951;49.516;6.094;2023-12-28T15:06:06;9.40;99.90
26212;DHT22;13951;49.516;6.094;2023-12-28T15:08:39;9.40;99.90
26212;DHT22;13951;49.516;6.094;2023-12-28T15:11:13;9.40;99.90
26212;DHT22;13951;49.516;6.094;2023-12-28T15:13:46;9.40;99.90
26212;DHT22;13951;49.516;6.094;2023-12-28T15:16:20;9.40;99.90
26212;DHT22;13951;49.516;6.094;2023-12-28T15:18:53;9.40;99.90
26212;DHT22;13951;49.516;6.094;2023-12-28T15:21:26;9.40;99.90
26212;DHT22;13951;49.516;6.094;2023-12-28T15:24:00;9.30;99.90
26212;DHT22;13951;49.516;6.094;2023-12-28T15:26:34;9.30;99.90
26212;DHT22;13951;49.516;6.094;2023-12-28T15:29:07;9.30;99.90
26212;DHT22;13951;49.516;6.094;2023-12-28T15:31:41;9.30;99.90
26212;DHT22;13951;49.516;6.094;2023-12-28T15:34:14;9.20;99.90
26212;DHT22;13951;49.516;6.094;2023-12-28T15:36:48;9.20;99.90
26212;DHT22;13951;49.516;6.094;2023-12-28T15:39:21;9.20;99.90
26212;DHT22;13951;49.516;6.094;2023-12-28T15:41:57;9.20;99.90
26212;DHT22;13951;49.516;6.094;2023-12-28T15:44:30;9.20;99.90
26212;DHT22;13951;49.516;6.094;2023-12-28T15:47:04;9.20;99.90
26212;DHT22;13951;49.516;6.094;2023-12-28T15:49:37;9.10;99.90
26212;DHT22;13951;49.516;6.094;2023-12-28T15:52:10;9.10;99.90
26212;DHT22;13951;49.516;6.094;2023-12-28T15:54:43;9.10;99.90
26212;DHT22;13951;49.516;6.094;2023-12-28T15:57:17;9.10;99.90
26212;DHT22;13951;49.516;6.094;2023-12-28T15:59:50;9.10;99.90
26212;DHT22;13951;49.516;6.094;2023-12-28T16:02:30;9.10;99.90
26212;DHT22;13951;49.516;6.094;2023-12-28T16:05:04;9.00;99.90
26212;DHT22;13951;49.516;6.094;2023-12-28T16:07:37;8.90;99.90
26212;DHT22;13951;49.516;6.094;2023-12-28T16:10:10;8.90;99.90
26212;DHT22;13951;49.516;6.094;2023-12-28T16:12:43;8.90;99.90
26212;DHT22;13951;49.516;6.094;2023-12-28T16:15:17;8.90;99.90
26212;DHT22;13951;49.516;6.094;2023-12-28T16:17:50;9.00;99.90
26212;DHT22;13951;49.516;6.094;2023-12-28T16:20:30;9.00;99.90
26212;DHT22;13951;49.516;6.094;2023-12-28T16:23:04;8.90;99.90
26212;DHT22;13951;49.516;6.094;2023-12-28T20:04:47;8.90;99.90
26212;DHT22;13951;49.516;6.094;2023-12-28T20:26:22;8.90;99.90
26212;DHT22;13951;49.516;6.094;2023-12-28T20:58:51;8.80;99.90
26212;DHT22;13951;49.516;6.094;2023-12-28T21:11:35;8.80;99.90
26212;DHT22;13951;49.516;6.094;2023-12-28T21:34:09;8.80;99.90
26212;DHT22;13951;49.516;6.094;2023-12-28T21:37:40;8.80;99.90
26212;DHT22;13951;49.516;6.094;2023-12-28T21:41:44;8.70;99.90
26212;DHT22;13951;49.516;6.094;2023-12-28T21:54:11;8.60;99.90
26212;DHT22;13951;49.516;6.094;2023-12-28T22:04:44;8.50;99.90
26212;DHT22;13951;49.516;6.094;2023-12-28T22:13:26;8.50;99.90
26212;DHT22;13951;49.516;6.094;2023-12-28T23:04:19;8.50;99.90
26212;DHT22;13951;49.516;6.094;2023-12-28T23:09:02;8.40;99.90
